createdAt,value
2018-05-04T00:00:52.140Z,65.35
2018-05-04T00:03:19.682Z,65.35
2018-05-04T00:05:47.179Z,65.52
2018-05-04T00:08:14.705Z,65.71
2018-05-04T00:10:42.216Z,65.75
2018-05-04T00:13:09.739Z,65.84
2018-05-04T00:15:37.233Z,66.13
2018-05-04T00:18:04.758Z,65.99
2018-05-04T00:20:32.253Z,65.91
2018-05-04T00:22:59.763Z,65.77
2018-05-04T00:25:27.253Z,65.72
2018-05-04T00:27:54.774Z,66.06
2018-05-04T00:30:22.279Z,65.93
2018-05-04T00:32:49.773Z,65.76
2018-05-04T00:35:17.288Z,65.54
2018-05-04T00:37:44.786Z,65.56
2018-05-04T00:40:12.310Z,65.73
2018-05-04T00:42:39.810Z,65.60
2018-05-04T00:45:07.346Z,65.63
2018-05-04T00:47:34.850Z,65.79
2018-05-04T00:50:02.364Z,65.58
2018-05-04T00:52:29.922Z,65.24
2018-05-04T00:54:57.419Z,65.06
2018-05-04T00:57:24.909Z,65.12
2018-05-04T00:59:52.433Z,65.13
2018-05-04T01:02:19.930Z,64.68
2018-05-04T01:04:47.430Z,64.54
2018-05-04T01:07:14.954Z,64.04
2018-05-04T01:09:42.485Z,63.96
2018-05-04T01:12:09.974Z,64.18
2018-05-04T01:14:37.484Z,64.17
2018-05-04T01:17:04.973Z,64.11
2018-05-04T01:19:32.471Z,64.14
2018-05-04T01:21:59.997Z,64.26
2018-05-04T01:24:27.857Z,63.88
2018-05-04T01:26:55.352Z,63.94
2018-05-04T01:29:22.869Z,64.05
2018-05-04T01:31:50.390Z,64.01
2018-05-04T01:34:17.882Z,64.13
2018-05-04T01:36:46.412Z,64.23
2018-05-04T01:39:13.907Z,64.16
2018-05-04T01:41:41.403Z,64.24
2018-05-04T01:44:08.934Z,64.31
2018-05-04T01:46:36.439Z,64.61
2018-05-04T01:49:03.937Z,64.37
2018-05-04T01:51:31.463Z,64.97
2018-05-04T01:53:58.958Z,65.14
2018-05-04T01:56:26.693Z,65.55
2018-05-04T01:58:54.214Z,65.90
2018-05-04T02:01:21.718Z,65.87
2018-05-04T02:03:49.213Z,65.87
2018-05-04T02:06:16.739Z,66.13
2018-05-04T02:08:44.232Z,66.14
2018-05-04T02:11:11.721Z,66.17
2018-05-04T02:13:39.251Z,66.28
2018-05-04T02:16:06.745Z,66.29
2018-05-04T02:18:34.242Z,66.33
2018-05-04T02:21:01.766Z,66.59
2018-05-04T02:23:29.270Z,66.34
2018-05-04T02:25:56.763Z,66.54
2018-05-04T02:28:24.276Z,66.97
2018-05-04T02:30:51.784Z,67.14
2018-05-04T02:33:19.286Z,67.01
2018-05-04T02:35:46.822Z,67.10
2018-05-04T02:38:14.324Z,67.50
2018-05-04T02:40:41.826Z,67.25
2018-05-04T02:43:09.343Z,66.97
2018-05-04T02:45:36.838Z,67.01
2018-05-04T02:48:04.336Z,66.80
2018-05-04T02:50:31.858Z,66.72
2018-05-04T02:52:59.351Z,67.02
2018-05-04T02:55:26.935Z,67.03
2018-05-04T02:57:54.409Z,67.04
2018-05-04T03:00:21.906Z,66.90
2018-05-04T03:02:49.402Z,67.17
2018-05-04T03:05:16.920Z,66.88
2018-05-04T03:07:44.408Z,66.88
2018-05-04T03:10:11.927Z,66.70
2018-05-04T03:12:39.450Z,66.96
2018-05-04T03:15:06.950Z,66.99
2018-05-04T03:17:34.438Z,67.02
2018-05-04T03:20:01.957Z,67.29
2018-05-04T03:22:29.453Z,67.12
2018-05-04T03:24:56.955Z,67.03
2018-05-04T03:27:24.481Z,67.13
2018-05-04T03:29:51.987Z,67.11
2018-05-04T03:32:19.486Z,67.40
2018-05-04T03:34:47.013Z,67.36
2018-05-04T03:37:14.517Z,67.03
2018-05-04T03:39:42.019Z,66.83
2018-05-04T03:42:09.544Z,66.72
2018-05-04T03:44:37.042Z,66.71
2018-05-04T03:47:04.546Z,66.81
2018-05-04T03:49:32.070Z,66.81
2018-05-04T03:51:59.632Z,66.72
2018-05-04T03:54:27.085Z,66.63
2018-05-04T03:57:07.438Z,66.63
2018-05-04T04:02:45.489Z,66.50
2018-05-04T04:05:12.994Z,66.51
2018-05-04T04:07:40.501Z,66.23
2018-05-04T04:10:08.022Z,66.07
2018-05-04T04:12:35.539Z,66.73
2018-05-04T04:15:03.021Z,66.55
2018-05-04T04:17:30.544Z,66.15
2018-05-04T04:19:58.042Z,65.92
2018-05-04T04:22:25.530Z,66.00
2018-05-04T04:24:53.044Z,65.72
2018-05-04T04:27:20.542Z,65.87
2018-05-04T04:29:48.057Z,65.67
2018-05-04T04:32:15.586Z,65.37
2018-05-04T04:34:43.105Z,65.19
2018-05-04T04:37:10.610Z,65.42
2018-05-04T04:39:38.136Z,65.39
2018-05-04T04:42:05.638Z,65.41
2018-05-04T04:44:33.125Z,65.39
2018-05-04T04:47:00.649Z,64.36
2018-05-04T04:49:28.146Z,63.09
2018-05-04T04:51:55.651Z,62.01
2018-05-04T04:54:23.180Z,60.93
2018-05-04T04:56:50.686Z,59.59
2018-05-04T04:59:18.195Z,58.52
2018-05-04T05:01:45.737Z,58.21
2018-05-04T05:04:13.252Z,58.58
2018-05-04T05:06:40.750Z,58.83
2018-05-04T05:09:08.269Z,58.47
2018-05-04T05:11:35.769Z,56.63
2018-05-04T05:14:03.311Z,56.25
2018-05-04T05:16:30.828Z,56.13
2018-05-04T05:18:58.327Z,55.84
2018-05-04T05:21:25.821Z,56.29
2018-05-04T05:23:53.332Z,55.81
2018-05-04T05:26:20.838Z,58.10
2018-05-04T05:28:48.341Z,57.49
2018-05-04T05:31:15.871Z,58.16
2018-05-04T05:33:43.421Z,59.69
2018-05-04T05:36:10.925Z,60.13
2018-05-04T05:38:38.446Z,58.99
2018-05-04T05:41:05.947Z,59.11
2018-05-04T05:43:33.441Z,59.75
2018-05-04T05:46:00.965Z,56.74
2018-05-04T05:48:28.456Z,54.32
2018-05-04T05:50:55.954Z,56.45
2018-05-04T05:53:23.469Z,58.65
2018-05-04T05:55:50.972Z,59.65
2018-05-04T05:58:18.467Z,60.52
2018-05-04T06:00:46.970Z,58.45
2018-05-04T06:03:14.510Z,58.30
2018-05-04T06:05:42.018Z,55.80
2018-05-04T06:08:09.547Z,54.70
2018-05-04T06:10:37.041Z,51.50
2018-05-04T06:13:04.546Z,50.15
2018-05-04T06:15:32.066Z,49.52
2018-05-04T06:17:59.586Z,50.42
2018-05-04T06:20:27.082Z,50.56
2018-05-04T06:22:54.609Z,50.26
2018-05-04T06:25:22.154Z,49.61
2018-05-04T06:27:49.648Z,49.38
2018-05-04T06:30:17.166Z,48.68
2018-05-04T06:32:44.679Z,47.12
2018-05-04T06:35:12.185Z,47.23
2018-05-04T06:37:40.613Z,47.51
2018-05-04T06:40:08.134Z,47.43
2018-05-04T06:42:35.708Z,46.54
2018-05-04T06:45:03.282Z,46.49
2018-05-04T06:47:30.836Z,45.39
2018-05-04T06:49:58.342Z,44.65
2018-05-04T06:52:25.864Z,45.03
2018-05-04T06:54:53.362Z,43.99
2018-05-04T06:57:20.862Z,42.75
2018-05-04T06:59:48.383Z,43.89
2018-05-04T07:02:15.886Z,44.28
2018-05-04T07:04:43.394Z,43.31
2018-05-04T07:07:10.917Z,44.24
2018-05-04T07:09:38.413Z,43.31
2018-05-04T07:12:05.911Z,43.18
2018-05-04T07:14:33.438Z,42.87
2018-05-04T07:17:00.932Z,42.82
2018-05-04T07:19:28.421Z,44.57
2018-05-04T07:21:55.953Z,47.83
2018-05-04T07:24:23.451Z,48.79
2018-05-04T07:26:50.946Z,44.79
2018-05-04T07:29:18.470Z,43.33
2018-05-04T07:31:45.977Z,43.06
2018-05-04T07:34:13.473Z,42.85
2018-05-04T07:36:40.992Z,40.64
2018-05-04T07:39:09.594Z,40.54
2018-05-04T07:41:37.104Z,40.84
2018-05-04T07:44:04.683Z,39.76
2018-05-04T07:46:32.187Z,41.01
2018-05-04T07:48:59.681Z,40.57
2018-05-04T07:51:27.193Z,40.16
2018-05-04T07:53:54.681Z,40.30
2018-05-04T07:56:34.090Z,40.04
2018-05-04T07:59:01.588Z,38.99
2018-05-04T08:01:29.087Z,39.50
2018-05-04T08:03:56.606Z,39.35
2018-05-04T08:06:24.098Z,39.95
2018-05-04T08:08:51.593Z,40.63
2018-05-04T08:11:19.114Z,40.03
2018-05-04T08:13:46.622Z,40.56
2018-05-04T08:16:14.132Z,39.76
2018-05-04T08:18:41.651Z,39.58
2018-05-04T08:21:09.147Z,39.50
2018-05-04T08:23:36.645Z,39.49
2018-05-04T08:26:04.165Z,39.74
2018-05-04T08:28:31.666Z,40.10
2018-05-04T08:30:59.169Z,41.10
2018-05-04T08:33:26.697Z,39.24
2018-05-04T08:35:54.193Z,39.05
2018-05-04T08:38:21.695Z,38.09
2018-05-04T08:40:49.302Z,36.87
2018-05-04T08:43:16.753Z,36.70
2018-05-04T08:45:44.258Z,37.54
2018-05-04T08:48:11.840Z,37.85
2018-05-04T08:50:39.317Z,36.94
2018-05-04T08:53:06.815Z,36.78
2018-05-04T08:55:34.339Z,36.42
2018-05-04T08:58:01.858Z,37.32
2018-05-04T09:00:29.354Z,39.05
2018-05-04T09:02:56.882Z,38.09
2018-05-04T09:05:24.502Z,38.00
2018-05-04T09:07:51.893Z,38.84
2018-05-04T09:10:19.421Z,38.21
2018-05-04T09:12:46.984Z,37.18
2018-05-04T09:15:14.437Z,41.97
2018-05-04T09:17:41.964Z,43.34
2018-05-04T09:20:09.467Z,42.42
2018-05-04T09:22:36.972Z,42.31
2018-05-04T09:25:04.499Z,38.84
2018-05-04T09:27:31.989Z,39.29
2018-05-04T09:29:59.490Z,40.67
2018-05-04T09:32:27.005Z,39.38
2018-05-04T09:34:54.502Z,40.34
2018-05-04T09:37:22.029Z,37.70
2018-05-04T09:39:49.558Z,38.38
2018-05-04T09:42:17.066Z,38.03
2018-05-04T09:44:44.564Z,41.27
2018-05-04T09:47:12.091Z,40.41
2018-05-04T09:49:39.591Z,41.18
2018-05-04T09:52:07.090Z,41.61
2018-05-04T09:54:34.648Z,38.63
2018-05-04T09:57:02.141Z,37.93
2018-05-04T09:59:29.638Z,37.21
2018-05-04T10:01:57.150Z,36.22
2018-05-04T10:04:24.646Z,37.74
2018-05-04T10:06:52.144Z,36.26
2018-05-04T10:09:19.666Z,37.06
2018-05-04T10:11:47.156Z,38.22
2018-05-04T10:14:14.658Z,37.41
2018-05-04T10:16:42.190Z,37.89
2018-05-04T10:19:09.683Z,36.86
2018-05-04T10:21:38.181Z,36.36
2018-05-04T10:24:05.701Z,39.65
2018-05-04T10:26:33.203Z,43.99
2018-05-04T10:29:00.715Z,45.15
2018-05-04T10:31:28.265Z,40.16
2018-05-04T10:33:55.758Z,38.62
2018-05-04T10:36:23.243Z,37.05
2018-05-04T10:38:50.849Z,36.15
2018-05-04T10:41:18.294Z,41.02
2018-05-04T10:43:45.791Z,43.30
2018-05-04T10:46:13.326Z,42.47
2018-05-04T10:48:40.827Z,37.54
2018-05-04T10:51:08.314Z,37.13
2018-05-04T10:53:35.835Z,38.49
2018-05-04T10:56:03.336Z,38.65
2018-05-04T10:58:30.838Z,39.05
2018-05-04T11:00:58.363Z,41.31
2018-05-04T11:03:25.871Z,42.00
2018-05-04T11:05:53.365Z,39.66
2018-05-04T11:08:20.887Z,41.54
2018-05-04T11:10:48.382Z,39.29
2018-05-04T11:13:15.874Z,39.68
2018-05-04T11:15:43.393Z,40.59
2018-05-04T11:18:10.884Z,39.73
2018-05-04T11:20:38.387Z,40.42
2018-05-04T11:23:05.907Z,40.73
2018-05-04T11:25:33.406Z,42.26
2018-05-04T11:28:00.923Z,42.87
2018-05-04T11:30:28.437Z,43.13
2018-05-04T11:32:55.937Z,42.66
2018-05-04T11:35:23.428Z,42.52
2018-05-04T11:37:50.948Z,43.86
2018-05-04T11:40:18.437Z,43.23
2018-05-04T11:42:45.937Z,43.41
2018-05-04T11:45:13.463Z,43.14
2018-05-04T11:47:40.971Z,43.92
2018-05-04T11:50:08.464Z,44.55
2018-05-04T11:52:36.007Z,44.02
2018-05-04T11:55:03.514Z,43.36
2018-05-04T11:57:31.057Z,43.43
2018-05-04T11:59:58.591Z,43.42
2018-05-04T12:02:26.109Z,42.88
2018-05-04T12:04:53.685Z,44.92
2018-05-04T12:07:21.146Z,45.48
2018-05-04T12:09:48.637Z,45.32
2018-05-04T12:12:16.127Z,45.21
2018-05-04T12:14:43.641Z,45.54
2018-05-04T12:17:11.130Z,44.05
2018-05-04T12:19:38.712Z,44.33
2018-05-04T12:22:06.228Z,44.58
2018-05-04T12:24:33.709Z,44.77
2018-05-04T12:27:01.201Z,44.16
2018-05-04T12:29:28.722Z,44.93
2018-05-04T12:31:56.213Z,44.99
2018-05-04T12:34:23.706Z,44.71
2018-05-04T12:36:51.230Z,43.58
2018-05-04T12:39:18.721Z,43.45
2018-05-04T12:41:46.219Z,43.33
2018-05-04T12:44:14.016Z,43.77
2018-05-04T12:46:41.512Z,43.39
2018-05-04T12:49:09.016Z,43.43
2018-05-04T12:51:36.550Z,43.87
2018-05-04T12:54:04.087Z,43.81
2018-05-04T12:56:31.557Z,44.34
2018-05-04T12:58:59.126Z,44.05
2018-05-04T13:01:26.618Z,44.33
2018-05-04T13:03:54.105Z,44.17
2018-05-04T13:06:21.622Z,44.19
2018-05-04T13:08:49.118Z,43.84
2018-05-04T13:11:16.617Z,44.54
2018-05-04T13:13:44.129Z,44.08
2018-05-04T13:16:11.673Z,44.38
2018-05-04T13:18:39.166Z,44.49
2018-05-04T13:21:06.725Z,44.86
2018-05-04T13:23:34.219Z,44.97
2018-05-04T13:26:01.715Z,44.30
2018-05-04T13:28:29.234Z,44.54
2018-05-04T13:30:56.726Z,46.24
2018-05-04T13:33:24.317Z,44.00
2018-05-04T13:35:51.783Z,43.58
2018-05-04T13:38:19.272Z,43.53
2018-05-04T13:40:46.769Z,44.02
2018-05-04T13:43:14.295Z,45.12
2018-05-04T13:45:41.841Z,44.46
2018-05-04T13:48:09.325Z,44.02
2018-05-04T13:50:36.838Z,44.08
2018-05-04T13:53:04.327Z,43.43
2018-05-04T13:55:31.830Z,43.08
2018-05-04T13:57:59.354Z,43.88
2018-05-04T14:00:26.902Z,42.96
2018-05-04T14:02:54.398Z,43.79
2018-05-04T14:05:21.921Z,43.06
2018-05-04T14:07:49.417Z,43.77
2018-05-04T14:10:16.937Z,43.14
2018-05-04T14:12:44.540Z,43.17
2018-05-04T14:15:11.985Z,42.61
2018-05-04T14:17:39.479Z,42.90
2018-05-04T14:20:07.015Z,43.24
2018-05-04T14:22:34.522Z,42.60
2018-05-04T14:25:02.024Z,42.27
2018-05-04T14:27:29.539Z,41.98
2018-05-04T14:29:57.083Z,42.28
2018-05-04T14:32:24.575Z,43.01
2018-05-04T14:34:52.123Z,43.21
2018-05-04T14:37:19.602Z,43.57
2018-05-04T14:39:47.090Z,43.28
2018-05-04T14:42:14.609Z,43.38
2018-05-04T14:44:42.093Z,43.47
2018-05-04T14:47:09.577Z,42.81
2018-05-04T14:49:37.142Z,43.75
2018-05-04T14:52:04.688Z,43.94
2018-05-04T14:54:32.198Z,43.65
2018-05-04T14:56:59.773Z,43.76
2018-05-04T14:59:27.261Z,43.97
2018-05-04T15:01:54.781Z,43.63
2018-05-04T15:04:22.293Z,43.93
2018-05-04T15:06:49.780Z,44.15
2018-05-04T15:09:17.277Z,43.17
2018-05-04T15:11:44.785Z,43.46
2018-05-04T15:14:12.277Z,43.00
2018-05-04T15:16:39.779Z,43.87
2018-05-04T15:19:07.298Z,43.68
2018-05-04T15:21:34.840Z,43.89
2018-05-04T15:24:02.334Z,44.56
2018-05-04T15:26:29.844Z,44.07
2018-05-04T15:28:57.337Z,44.50
2018-05-04T15:31:24.911Z,44.00
2018-05-04T15:33:52.433Z,44.50
2018-05-04T15:36:19.934Z,44.61
2018-05-04T15:38:47.421Z,44.80
2018-05-04T15:41:14.929Z,44.64
2018-05-04T15:43:42.425Z,44.36
2018-05-04T15:46:09.919Z,44.64
2018-05-04T15:48:42.940Z,44.16
2018-05-04T15:51:15.959Z,44.11
2018-05-04T15:53:43.478Z,45.50
2018-05-04T15:56:10.982Z,44.74
2018-05-04T15:58:38.523Z,45.36
2018-05-04T16:01:06.097Z,45.09
2018-05-04T16:03:33.596Z,44.99
2018-05-04T16:06:01.199Z,45.00
2018-05-04T16:08:28.636Z,44.35
2018-05-04T16:10:56.138Z,44.76
2018-05-04T16:13:23.632Z,44.10
2018-05-04T16:15:51.140Z,45.20
2018-05-04T16:18:18.630Z,44.98
2018-05-04T16:20:46.112Z,44.81
2018-05-04T16:23:13.630Z,45.03
2018-05-04T16:25:41.135Z,45.16
2018-05-04T16:28:08.617Z,45.36
2018-05-04T16:30:36.140Z,45.88
2018-05-04T16:33:03.630Z,45.85
2018-05-04T16:35:31.126Z,45.87
2018-05-04T16:37:58.650Z,45.44
2018-05-04T16:40:26.146Z,46.11
2018-05-04T16:42:53.634Z,46.27
2018-05-04T16:45:21.162Z,46.31
2018-05-04T16:47:54.247Z,46.11
2018-05-04T16:50:21.756Z,46.12
2018-05-04T16:52:49.244Z,46.06
2018-05-04T16:55:16.732Z,46.13
2018-05-04T16:57:44.258Z,46.37
2018-05-04T17:00:11.779Z,46.23
2018-05-04T17:02:39.269Z,46.44
2018-05-04T17:05:06.793Z,46.45
2018-05-04T17:07:34.305Z,46.54
2018-05-04T17:10:01.799Z,46.76
2018-05-04T17:12:29.309Z,47.09
2018-05-04T17:14:56.796Z,47.02
2018-05-04T17:17:24.286Z,46.75
2018-05-04T17:19:51.802Z,46.81
2018-05-04T17:22:19.295Z,46.53
2018-05-04T17:24:46.797Z,46.71
2018-05-04T17:27:14.319Z,46.95
2018-05-04T17:29:41.819Z,46.93
2018-05-04T17:32:09.305Z,46.84
2018-05-04T17:34:36.820Z,47.01
2018-05-04T17:37:04.318Z,47.02
2018-05-04T17:39:31.819Z,47.16
2018-05-04T17:41:59.354Z,47.50
2018-05-04T17:44:26.850Z,47.69
2018-05-04T17:46:54.359Z,47.86
2018-05-04T17:49:21.877Z,47.98
2018-05-04T17:51:49.425Z,48.04
2018-05-04T17:54:16.919Z,47.86
2018-05-04T17:56:44.434Z,48.05
2018-05-04T17:59:11.927Z,48.05
2018-05-04T18:01:39.425Z,48.02
2018-05-04T18:04:06.940Z,48.89
2018-05-04T18:06:34.787Z,48.95
2018-05-04T18:09:02.305Z,49.12
2018-05-04T18:11:29.826Z,49.04
2018-05-04T18:13:57.309Z,48.60
2018-05-04T18:16:24.797Z,48.45
2018-05-04T18:18:52.318Z,48.80
2018-05-04T18:21:19.813Z,48.98
2018-05-04T18:23:47.308Z,48.89
2018-05-04T18:26:14.839Z,48.98
2018-05-04T18:28:42.326Z,48.85
2018-05-04T18:31:09.808Z,48.85
2018-05-04T18:33:37.328Z,49.11
2018-05-04T18:36:04.822Z,48.98
2018-05-04T18:38:32.313Z,49.07
2018-05-04T18:40:59.830Z,49.11
2018-05-04T18:43:27.334Z,49.37
2018-05-04T18:45:54.830Z,49.45
2018-05-04T18:48:22.412Z,49.50
2018-05-04T18:50:49.862Z,49.65
2018-05-04T18:53:17.346Z,49.87
2018-05-04T18:55:44.862Z,50.06
2018-05-04T18:58:12.351Z,50.11
2018-05-04T19:00:39.837Z,50.25
2018-05-04T19:03:12.822Z,50.65
2018-05-04T19:05:40.319Z,50.74
2018-05-04T19:08:07.879Z,50.91
2018-05-04T19:10:35.401Z,51.25
2018-05-04T19:13:02.903Z,51.41
2018-05-04T19:15:30.398Z,51.29
2018-05-04T19:17:57.913Z,50.73
2018-05-04T19:20:25.405Z,50.41
2018-05-04T19:22:52.907Z,50.50
2018-05-04T19:25:20.423Z,50.18
2018-05-04T19:27:47.918Z,50.47
2018-05-04T19:30:15.408Z,50.31
2018-05-04T19:32:42.913Z,50.77
2018-05-04T19:35:10.393Z,50.88
2018-05-04T19:37:37.877Z,51.29
2018-05-04T19:40:05.389Z,51.58
2018-05-04T19:42:32.893Z,51.77
2018-05-04T19:45:00.386Z,51.67
2018-05-04T19:47:27.897Z,51.85
2018-05-04T19:49:55.386Z,51.63
2018-05-04T19:52:22.883Z,51.93
2018-05-04T19:54:50.409Z,52.29
2018-05-04T19:57:17.902Z,52.28
2018-05-04T19:59:45.424Z,52.37
2018-05-04T20:02:12.950Z,52.05
2018-05-04T20:04:40.438Z,52.13
2018-05-04T20:07:07.963Z,52.48
2018-05-04T20:09:35.510Z,52.19
2018-05-04T20:12:03.588Z,51.74
2018-05-04T20:14:31.077Z,51.79
2018-05-04T20:16:58.598Z,51.61
2018-05-04T20:19:26.085Z,51.40
2018-05-04T20:21:53.570Z,51.47
2018-05-04T20:24:21.089Z,51.84
2018-05-04T20:26:48.573Z,51.82
2018-05-04T20:29:16.052Z,51.58
2018-05-04T20:31:43.565Z,51.39
2018-05-04T20:34:11.058Z,51.39
2018-05-04T20:36:38.609Z,51.14
2018-05-04T20:39:06.164Z,51.10
2018-05-04T20:41:33.686Z,51.25
2018-05-04T20:44:01.247Z,51.23
2018-05-04T20:46:28.822Z,51.37
2018-05-04T20:48:56.313Z,51.26
2018-05-04T20:51:23.815Z,51.07
2018-05-04T20:53:51.425Z,51.28
2018-05-04T20:56:18.943Z,51.12
2018-05-04T20:58:46.451Z,51.26
2018-05-04T21:01:14.020Z,51.18
2018-05-04T21:03:41.575Z,51.22
2018-05-04T21:06:09.107Z,51.34
2018-05-04T21:08:36.669Z,51.82
2018-05-04T21:11:04.246Z,52.30
2018-05-04T21:13:31.765Z,52.37
2018-05-04T21:15:59.288Z,51.34
2018-05-04T21:18:26.815Z,51.38
2018-05-04T21:20:54.311Z,50.98
2018-05-04T21:23:22.847Z,51.09
2018-05-04T21:25:50.356Z,50.84
2018-05-04T21:28:17.887Z,50.94
2018-05-04T21:30:45.397Z,51.00
2018-05-04T21:33:12.886Z,50.73
2018-05-04T21:35:40.387Z,50.84
2018-05-04T21:38:08.922Z,50.88
2018-05-04T21:40:36.433Z,50.71
2018-05-04T21:43:03.941Z,50.50
2018-05-04T21:45:32.038Z,50.79
2018-05-04T21:47:59.525Z,50.95
2018-05-04T21:50:27.034Z,50.81
2018-05-04T21:52:54.568Z,50.63
2018-05-04T21:55:22.077Z,50.91
2018-05-04T21:57:49.643Z,50.83
2018-05-04T22:00:17.186Z,51.04
2018-05-04T22:02:44.701Z,50.94
2018-05-04T22:05:12.200Z,51.16
2018-05-04T22:07:39.737Z,51.05
2018-05-04T22:10:07.229Z,51.32
2018-05-04T22:12:34.767Z,51.08
2018-05-04T22:15:02.332Z,51.15
2018-05-04T22:17:29.879Z,51.04
2018-05-04T22:19:57.393Z,51.49
2018-05-04T22:22:25.002Z,51.49
2018-05-04T22:24:52.562Z,51.35
2018-05-04T22:27:20.070Z,51.39
2018-05-04T22:29:47.646Z,51.66
2018-05-04T22:32:15.186Z,51.41
2018-05-04T22:37:16.725Z,51.51
2018-05-04T22:39:44.249Z,51.54
2018-05-04T22:42:11.761Z,51.62
2018-05-04T22:44:39.317Z,51.70
2018-05-04T22:47:06.850Z,51.75
2018-05-04T22:49:34.358Z,52.18
2018-05-04T22:52:01.889Z,51.82
2018-05-04T22:54:29.406Z,51.54
2018-05-04T22:56:56.925Z,51.67
2018-05-04T22:59:24.489Z,51.86
2018-05-04T23:01:52.037Z,51.83
2018-05-04T23:04:19.583Z,52.09
2018-05-04T23:06:47.123Z,52.05
2018-05-04T23:09:14.653Z,52.38
2018-05-04T23:11:42.181Z,52.74
2018-05-04T23:14:09.752Z,52.60
2018-05-04T23:16:37.315Z,52.81
2018-05-04T23:19:04.810Z,52.49
2018-05-04T23:21:32.357Z,52.78
2018-05-04T23:23:59.885Z,52.77
2018-05-04T23:26:27.415Z,53.37
2018-05-04T23:28:54.958Z,53.68
2018-05-04T23:31:22.461Z,53.80
2018-05-04T23:33:50.038Z,54.22
2018-05-04T23:36:18.530Z,54.09
2018-05-04T23:38:46.346Z,53.66
2018-05-04T23:41:13.905Z,53.80
2018-05-04T23:43:41.434Z,54.15
2018-05-04T23:46:08.974Z,53.97
2018-05-04T23:48:36.494Z,54.25
2018-05-04T23:51:04.034Z,54.26
2018-05-04T23:53:31.536Z,54.42
2018-05-04T23:55:59.026Z,54.36
2018-05-04T23:58:26.594Z,54.56
